Redrun, Pennsylvania
Current Conditions -  °F | °C
As of 4:53 AM on Sunday 26 Oct 2014 (Local Time) from KLNS Reporting Station
Clear Clear  
Wind Chill: 58°   Ceiling: Unl
Heat Index: 58°   Visibility: 10mi
Dew Point: 34°   Wind: 20mph
Humidity: 41%   Direction: 320°NW
Pressure: 29.67"   Gusts: 25mph
Location:  40.2484°N, 76.2239°W
Report Text: KLNS 260853Z AUTO 32017G22KT 10SM CLR 14/01 A2967 RMK AO2 SLP045 T01440011 53016
Loading
Personal Weather Stations






























Interactive Weather Map
Tropical Storm Tracking
New forecast layout! Learn more

10-Day Weather Forecast

Advertisements
Track Severe Weather on mobile